CheckWX is a tool to help pilots better visualize weather data.  It is not intended as a substitute for an official pre-flight weather briefing.

12:18:00 UTC

DNKA METAR
Kaduna Airport
Kaduna, Nigeria
Current

2 hours ago

DNKA 241000Z 06016KT 5000 HZ NSC 27/03 Q1019
Observed
Feb-24 @ 10:00 UTC
Wind
  • 060° at 16 KTS
Visibility
5,000 meters
Flight Rules
MVFR
Conditions
Haze
Cloud Levels
  • Clear skies
Temperature
27°C / 81°F
Dewpoint
C / 37°F
Humidity
21%
Altimeter
30.09" Hg
Pressure
1018.92 hPa
Previous

5 hours ago

DNKA 240700Z 08014KT 5000 HZ NSC 21/01 Q1018
Observed
Feb-24 @ 07:00 UTC
Wind
  • 080° at 14 KTS
Visibility
5,000 meters
Flight Rules
MVFR
Conditions
Haze
Cloud Levels
  • Clear skies
Temperature
21°C / 70°F
Dewpoint
C / 34°F
Humidity
27%
Altimeter
30.06" Hg
Pressure
1017.92 hPa
Previous

6 hours ago

DNKA 240600Z 06015KT 1800 HZ NSC 19/10 Q1017
Observed
Feb-24 @ 06:00 UTC
Wind
  • 060° at 15 KTS
Visibility
1,800 meters
Flight Rules
IFR
Conditions
Haze
Cloud Levels
  • Clear skies
Temperature
19°C / 66°F
Dewpoint
10°C / 50°F
Humidity
56%
Altimeter
30.03" Hg
Pressure
1016.92 hPa